createdAt,value
2018-09-12T00:01:29.295Z,73.20
2018-09-12T00:03:57.532Z,73.10
2018-09-12T00:06:25.706Z,73.70
2018-09-12T00:08:53.858Z,72.10
2018-09-12T00:11:22.006Z,71.00
2018-09-12T00:13:50.182Z,70.10
2018-09-12T00:16:18.447Z,69.20
2018-09-12T00:18:46.593Z,70.30
2018-09-12T00:21:14.933Z,70.30
2018-09-12T00:23:42.965Z,71.40
2018-09-12T00:26:11.098Z,71.00
2018-09-12T00:28:39.253Z,70.90
2018-09-12T00:31:07.413Z,71.40
2018-09-12T00:33:35.581Z,72.70
2018-09-12T00:36:03.738Z,74.00
2018-09-12T00:38:32.103Z,74.90
2018-09-12T00:41:00.261Z,75.50
2018-09-12T00:43:28.430Z,76.90
2018-09-12T00:45:56.704Z,77.40
2018-09-12T00:48:24.865Z,77.80
2018-09-12T00:50:53.105Z,77.60
2018-09-12T00:53:21.277Z,78.80
2018-09-12T00:55:49.419Z,79.50
2018-09-12T00:58:17.580Z,79.80
2018-09-12T01:00:45.741Z,80.10
2018-09-12T01:03:13.900Z,80.80
2018-09-12T01:05:42.910Z,82.10
2018-09-12T01:08:12.509Z,82.40
2018-09-12T01:10:40.646Z,82.60
2018-09-12T01:13:09.225Z,82.90
2018-09-12T01:15:37.688Z,83.30
2018-09-12T01:18:05.858Z,84.00
2018-09-12T01:20:34.541Z,84.40
2018-09-12T01:23:02.891Z,85.20
2018-09-12T01:25:31.197Z,85.00
2018-09-12T01:27:59.420Z,85.00
2018-09-12T01:30:28.215Z,85.00
2018-09-12T01:32:57.229Z,84.80
2018-09-12T01:35:25.416Z,85.90
2018-09-12T01:37:53.579Z,85.80
2018-09-12T01:40:21.748Z,83.90
2018-09-12T01:42:49.949Z,81.70
2018-09-12T01:45:19.255Z,80.70
2018-09-12T01:47:48.433Z,80.20
2018-09-12T01:50:16.604Z,80.60
2018-09-12T01:52:45.408Z,80.40
2018-09-12T01:55:13.617Z,81.00
2018-09-12T01:57:41.791Z,82.60
2018-09-12T02:00:14.328Z,83.40
2018-09-12T02:02:42.761Z,84.40
2018-09-12T02:05:10.910Z,85.20
2018-09-12T02:07:39.072Z,86.40
2018-09-12T02:10:09.187Z,87.30
2018-09-12T02:12:37.404Z,87.20
2018-09-12T02:15:05.809Z,88.10
2018-09-12T02:17:34.288Z,88.90
2018-09-12T02:20:02.701Z,89.10
2018-09-12T02:22:30.905Z,90.10
2018-09-12T02:24:59.050Z,90.20
2018-09-12T02:27:27.325Z,90.20
2018-09-12T02:29:55.521Z,90.50
2018-09-12T02:32:23.727Z,90.70
2018-09-12T02:34:52.622Z,91.00
2018-09-12T02:37:20.869Z,91.20
2018-09-12T02:39:49.005Z,91.50
2018-09-12T02:42:17.157Z,91.50
2018-09-12T02:44:45.479Z,91.80
2018-09-12T02:47:18.810Z,91.50
2018-09-12T02:49:46.971Z,91.50
2018-09-12T02:52:15.134Z,91.70
2018-09-12T02:54:43.363Z,91.70
2018-09-12T02:57:11.659Z,92.20
2018-09-12T02:59:39.851Z,92.20
2018-09-12T03:02:07.973Z,91.90
2018-09-12T03:04:36.247Z,92.20
2018-09-12T03:07:04.412Z,92.10
2018-09-12T03:09:32.560Z,92.40
2018-09-12T03:12:07.184Z,92.40
2018-09-12T03:14:35.471Z,92.90
2018-09-12T03:17:03.840Z,92.70
2018-09-12T03:19:32.007Z,92.90
2018-09-12T03:22:00.194Z,92.80
2018-09-12T03:24:28.384Z,93.00
2018-09-12T03:26:56.747Z,93.50
2018-09-12T03:29:24.914Z,93.30
2018-09-12T03:31:53.067Z,93.00
2018-09-12T03:34:21.497Z,93.00
2018-09-12T03:36:49.665Z,93.00
2018-09-12T03:39:17.810Z,93.00
2018-09-12T03:41:45.998Z,93.20
2018-09-12T03:44:14.155Z,93.50
2018-09-12T03:46:42.540Z,93.30
2018-09-12T03:49:11.432Z,93.00
2018-09-12T03:51:39.881Z,93.50
2018-09-12T03:54:08.095Z,92.60
2018-09-12T03:56:36.254Z,91.80
2018-09-12T03:59:04.604Z,91.40
2018-09-12T04:01:32.825Z,91.20
2018-09-12T04:04:01.131Z,91.00
2018-09-12T04:06:29.353Z,91.00
2018-09-12T04:08:58.061Z,91.30
2018-09-12T04:11:26.325Z,91.10
2018-09-12T04:13:54.529Z,91.70
2018-09-12T04:16:22.700Z,91.40
2018-09-12T04:18:50.896Z,91.40
2018-09-12T04:21:19.573Z,91.60
2018-09-12T04:23:47.835Z,91.90
2018-09-12T04:26:15.981Z,92.10
2018-09-12T04:28:44.449Z,92.00
2018-09-12T04:31:12.616Z,92.30
2018-09-12T04:33:40.896Z,92.30
2018-09-12T04:36:09.376Z,92.60
2018-09-12T04:38:37.759Z,93.00
2018-09-12T04:41:06.887Z,92.70
2018-09-12T04:43:35.074Z,92.90
2018-09-12T04:46:03.228Z,93.30
2018-09-12T04:48:31.409Z,93.50
2018-09-12T04:50:59.655Z,93.70
2018-09-12T04:53:27.807Z,93.60
2018-09-12T04:55:55.966Z,93.20
2018-09-12T04:58:24.112Z,93.70
2018-09-12T05:00:54.072Z,93.10
2018-09-12T05:03:23.338Z,93.30
2018-09-12T05:05:52.467Z,93.30
2018-09-12T05:08:20.643Z,93.30
2018-09-12T05:10:50.527Z,93.30
2018-09-12T05:13:19.427Z,94.00
2018-09-12T05:15:47.650Z,94.00
2018-09-12T05:18:16.094Z,94.40
2018-09-12T05:20:44.378Z,94.40
2018-09-12T05:23:12.519Z,94.30
2018-09-12T05:25:40.692Z,94.70
2018-09-12T05:28:08.865Z,94.80
2018-09-12T05:30:37.237Z,94.90
2018-09-12T05:33:05.416Z,94.70
2018-09-12T05:35:33.832Z,94.50
2018-09-12T05:38:02.381Z,94.50
2018-09-12T05:40:30.534Z,94.40
2018-09-12T05:42:58.702Z,94.40
2018-09-12T05:45:26.878Z,94.30
2018-09-12T05:47:55.065Z,93.60
2018-09-12T05:50:23.225Z,93.70
2018-09-12T05:52:51.439Z,93.50
2018-09-12T05:55:19.589Z,93.70
2018-09-12T05:57:47.728Z,93.20
2018-09-12T06:00:15.939Z,92.70
2018-09-12T06:02:44.096Z,92.20
2018-09-12T06:05:12.386Z,92.30
2018-09-12T06:07:40.548Z,92.10
2018-09-12T06:10:08.704Z,92.10
2018-09-12T06:12:36.852Z,92.20
2018-09-12T06:15:05.982Z,92.00
2018-09-12T06:17:34.135Z,91.30
2018-09-12T06:20:02.278Z,91.30
2018-09-12T06:22:30.580Z,90.80
2018-09-12T06:24:58.759Z,90.50
2018-09-12T06:27:26.937Z,88.30
2018-09-12T06:29:55.295Z,88.50
2018-09-12T06:32:23.500Z,86.60
2018-09-12T06:34:51.645Z,84.80
2018-09-12T06:37:19.832Z,83.30
2018-09-12T06:39:48.005Z,82.70
2018-09-12T06:42:16.198Z,82.00
2018-09-12T06:44:44.962Z,81.30
2018-09-12T06:47:13.124Z,80.80
2018-09-12T06:49:41.252Z,79.70
2018-09-12T06:52:09.544Z,78.80
2018-09-12T06:54:37.728Z,76.30
2018-09-12T06:57:05.880Z,75.70
2018-09-12T06:59:34.316Z,75.20
2018-09-12T07:02:02.481Z,74.50
2018-09-12T07:04:30.627Z,73.90
2018-09-12T07:06:58.884Z,73.10
2018-09-12T07:09:27.026Z,72.00
2018-09-12T07:11:55.212Z,71.40
2018-09-12T07:14:23.428Z,71.70
2018-09-12T07:16:51.554Z,70.10
2018-09-12T07:19:19.877Z,70.40
2018-09-12T07:21:48.026Z,69.50
2018-09-12T07:24:16.406Z,69.50
2018-09-12T07:26:44.585Z,68.80
2018-09-12T07:29:12.893Z,67.50
2018-09-12T07:31:41.119Z,67.90
2018-09-12T07:34:09.908Z,65.80
2018-09-12T07:36:38.142Z,64.40
2018-09-12T07:39:09.694Z,63.60
2018-09-12T07:41:38.281Z,62.50
2018-09-12T07:44:06.590Z,61.40
2018-09-12T07:46:35.760Z,60.30
2018-09-12T07:49:04.272Z,59.60
2018-09-12T07:51:32.435Z,58.90
2018-09-12T07:54:00.612Z,58.20
2018-09-12T07:56:28.882Z,57.90
2018-09-12T07:58:57.142Z,57.60
2018-09-12T08:01:25.648Z,56.20
2018-09-12T08:03:53.795Z,55.90
2018-09-12T08:06:22.140Z,55.60
2018-09-12T08:08:50.278Z,55.00
2018-09-12T08:11:18.432Z,54.90
2018-09-12T08:13:46.612Z,56.40
2018-09-12T08:16:14.809Z,57.50
2018-09-12T08:18:42.951Z,59.40
2018-09-12T08:21:11.798Z,60.40
2018-09-12T08:23:40.218Z,60.70
2018-09-12T08:26:08.881Z,62.10
2018-09-12T08:28:36.991Z,62.40
2018-09-12T08:31:05.243Z,62.20
2018-09-12T08:33:33.345Z,63.30
2018-09-12T08:36:01.545Z,63.70
2018-09-12T08:38:29.710Z,63.80
2018-09-12T08:40:57.854Z,63.70
2018-09-12T08:43:26.063Z,65.40
2018-09-12T08:45:54.265Z,66.30
2018-09-12T08:48:22.412Z,66.10
2018-09-12T08:50:51.402Z,65.90
2018-09-12T08:53:20.395Z,65.30
2018-09-12T08:55:49.234Z,65.60
2018-09-12T08:58:17.484Z,66.30
2018-09-12T09:00:45.697Z,64.80
2018-09-12T09:03:13.921Z,63.50
2018-09-12T09:05:42.070Z,63.30
2018-09-12T09:08:10.223Z,62.80
2018-09-12T09:10:38.415Z,62.30
2018-09-12T09:13:06.516Z,61.40
2018-09-12T09:15:36.898Z,61.40
2018-09-12T09:18:05.436Z,60.20
2018-09-12T09:20:33.702Z,60.20
2018-09-12T09:23:01.842Z,59.50
2018-09-12T09:25:30.009Z,59.90
2018-09-12T09:27:58.189Z,58.80
2018-09-12T09:30:28.934Z,58.60
2018-09-12T09:32:57.091Z,57.60
2018-09-12T09:35:25.369Z,56.40
2018-09-12T09:37:53.430Z,56.30
2018-09-12T09:40:21.769Z,57.40
2018-09-12T09:42:49.947Z,56.60
2018-09-12T09:45:18.161Z,54.50
2018-09-12T09:47:46.413Z,53.20
2018-09-12T09:50:14.495Z,53.80
2018-09-12T09:52:42.652Z,53.90
2018-09-12T09:55:11.268Z,53.80
2018-09-12T09:57:39.364Z,53.30
2018-09-12T10:00:14.440Z,51.90
2018-09-12T10:02:46.840Z,51.80
2018-09-12T10:05:20.337Z,51.00
2018-09-12T10:07:52.836Z,49.90
2018-09-12T10:10:20.996Z,50.70
2018-09-12T10:12:49.160Z,51.70
2018-09-12T10:15:17.360Z,50.60
2018-09-12T10:17:45.553Z,49.50
2018-09-12T10:20:13.779Z,49.30
2018-09-12T10:22:41.909Z,48.80
2018-09-12T10:25:10.074Z,46.60
2018-09-12T10:27:38.251Z,46.10
2018-09-12T10:30:13.033Z,43.70
2018-09-12T10:32:41.312Z,43.20
2018-09-12T10:35:09.828Z,43.60
2018-09-12T10:37:37.977Z,43.80
2018-09-12T10:40:06.189Z,43.20
2018-09-12T10:42:34.346Z,41.30
2018-09-12T10:45:02.578Z,42.00
2018-09-12T10:47:30.785Z,42.80
2018-09-12T10:49:59.240Z,43.00
2018-09-12T10:52:27.413Z,42.70
2018-09-12T10:54:55.610Z,42.90
2018-09-12T10:57:23.789Z,40.40
2018-09-12T10:59:51.944Z,40.50
2018-09-12T11:02:20.141Z,39.90
2018-09-12T11:04:48.304Z,40.00
2018-09-12T11:07:16.448Z,39.50
2018-09-12T11:09:44.672Z,37.90
2018-09-12T11:12:12.759Z,38.30
2018-09-12T11:14:40.902Z,37.80
2018-09-12T11:17:09.080Z,36.30
2018-09-12T11:19:37.245Z,35.90
2018-09-12T11:22:05.446Z,36.00
2018-09-12T11:24:33.665Z,35.20
2018-09-12T11:27:01.866Z,33.90
2018-09-12T11:29:30.013Z,33.30
2018-09-12T11:31:58.175Z,34.50
2018-09-12T11:34:26.336Z,34.60
2018-09-12T11:36:54.488Z,35.00
2018-09-12T11:39:22.665Z,35.10
2018-09-12T11:41:50.858Z,34.60
2018-09-12T11:44:18.980Z,34.70
2018-09-12T11:46:47.154Z,34.10
2018-09-12T11:49:15.364Z,34.10
2018-09-12T11:51:43.475Z,32.70
2018-09-12T11:54:11.852Z,31.90
2018-09-12T11:56:39.989Z,32.80
2018-09-12T11:59:08.231Z,33.40
2018-09-12T12:01:36.432Z,37.10
2018-09-12T12:04:04.570Z,38.30
2018-09-12T12:06:32.753Z,38.80
2018-09-12T12:09:00.903Z,37.90
2018-09-12T12:11:29.051Z,36.70
2018-09-12T12:13:57.270Z,36.80
2018-09-12T12:16:25.432Z,36.90
2018-09-12T12:18:53.592Z,37.50
2018-09-12T12:21:21.744Z,37.70
2018-09-12T12:23:49.893Z,36.50
2018-09-12T12:26:18.061Z,35.70
2018-09-12T12:28:46.355Z,35.50
2018-09-12T12:31:14.496Z,35.70
2018-09-12T12:33:42.640Z,35.50
2018-09-12T12:36:11.397Z,35.40
2018-09-12T12:38:39.541Z,32.90
2018-09-12T12:41:07.689Z,32.20
2018-09-12T12:43:35.845Z,31.10
2018-09-12T12:46:03.992Z,30.30
2018-09-12T12:48:32.171Z,30.00
2018-09-12T12:51:00.345Z,30.70
2018-09-12T12:53:28.612Z,29.60
2018-09-12T12:55:57.088Z,29.30
2018-09-12T12:58:25.365Z,28.50
2018-09-12T13:00:53.779Z,28.10
2018-09-12T13:03:22.123Z,27.40
2018-09-12T13:05:50.301Z,27.50
2018-09-12T13:08:18.448Z,27.80
2018-09-12T13:10:46.689Z,27.30
2018-09-12T13:13:14.873Z,30.30
2018-09-12T13:15:43.062Z,31.30
2018-09-12T13:18:11.214Z,31.70
2018-09-12T13:20:39.417Z,31.60
2018-09-12T13:23:07.606Z,31.80
2018-09-12T13:25:35.820Z,31.30
2018-09-12T13:28:04.021Z,30.20
2018-09-12T13:30:32.161Z,31.30
2018-09-12T13:33:00.334Z,32.00
2018-09-12T13:35:28.488Z,31.00
2018-09-12T13:37:56.621Z,31.90
2018-09-12T13:40:24.960Z,31.50
2018-09-12T13:42:53.641Z,32.20
2018-09-12T13:45:21.784Z,32.00
2018-09-12T13:47:49.949Z,30.90
2018-09-12T13:50:18.132Z,30.00
2018-09-12T13:52:47.076Z,30.40
2018-09-12T13:55:15.334Z,30.00
2018-09-12T13:57:43.847Z,31.20
2018-09-12T14:00:12.060Z,31.20
2018-09-12T14:02:40.220Z,32.30
2018-09-12T14:05:08.385Z,33.00
2018-09-12T14:07:36.728Z,34.40
2018-09-12T14:10:05.229Z,34.80
2018-09-12T14:12:33.389Z,33.90
2018-09-12T14:15:01.560Z,34.00
2018-09-12T14:17:30.007Z,33.20
2018-09-12T14:19:58.156Z,36.00
2018-09-12T14:22:26.458Z,37.60
2018-09-12T14:24:54.660Z,38.50
2018-09-12T14:27:22.783Z,37.40
2018-09-12T14:29:51.011Z,38.10
2018-09-12T14:32:19.279Z,38.30
2018-09-12T14:34:47.554Z,38.60
2018-09-12T14:37:15.722Z,40.90
2018-09-12T14:39:43.921Z,41.40
2018-09-12T14:42:12.076Z,43.50
2018-09-12T14:44:40.216Z,44.00
2018-09-12T14:47:08.449Z,45.10
2018-09-12T14:49:36.618Z,46.50
2018-09-12T14:52:04.787Z,48.90
2018-09-12T14:54:33.084Z,51.10
2018-09-12T14:57:01.241Z,52.60
2018-09-12T14:59:29.418Z,55.10
2018-09-12T15:01:57.589Z,56.60
2018-09-12T15:04:25.779Z,57.40
2018-09-12T15:06:53.943Z,57.80
2018-09-12T15:09:22.124Z,57.30
2018-09-12T15:11:50.276Z,59.50
2018-09-12T15:14:18.525Z,58.90
2018-09-12T15:16:46.697Z,58.40
2018-09-12T15:19:14.860Z,59.70
2018-09-12T15:21:43.093Z,61.40
2018-09-12T15:24:11.269Z,63.20
2018-09-12T15:26:39.422Z,63.30
2018-09-12T15:29:07.900Z,65.40
2018-09-12T15:31:36.037Z,64.80
2018-09-12T15:34:04.194Z,63.50
2018-09-12T15:36:32.380Z,66.30
2018-09-12T15:39:00.520Z,65.90
2018-09-12T15:41:28.942Z,67.40
2018-09-12T15:43:57.033Z,66.60
2018-09-12T15:46:25.177Z,67.90
2018-09-12T15:48:55.067Z,67.70
2018-09-12T15:51:23.350Z,68.50
2018-09-12T15:53:51.494Z,70.30
2018-09-12T15:56:19.661Z,70.30
2018-09-12T15:58:47.833Z,71.20
2018-09-12T16:01:15.992Z,73.90
2018-09-12T16:03:50.751Z,74.60
2018-09-12T16:06:18.897Z,75.00
2018-09-12T16:08:47.249Z,75.30
2018-09-12T16:11:15.429Z,75.50
2018-09-12T16:13:43.601Z,77.80
2018-09-12T16:16:11.767Z,79.10
2018-09-12T16:18:39.959Z,81.00
2018-09-12T16:21:08.482Z,81.30
2018-09-12T16:23:36.829Z,82.40
2018-09-12T16:26:05.313Z,83.70
2018-09-12T16:28:33.896Z,82.70
2018-09-12T16:31:02.084Z,81.60
2018-09-12T16:33:30.342Z,81.30
2018-09-12T16:35:58.800Z,81.60
2018-09-12T16:38:26.998Z,77.60
2018-09-12T16:40:55.349Z,77.90
2018-09-12T16:43:24.438Z,78.70
2018-09-12T16:45:52.773Z,78.70
2018-09-12T16:48:21.772Z,81.80
2018-09-12T16:50:49.988Z,84.70
2018-09-12T16:53:18.799Z,83.50
2018-09-12T16:55:46.978Z,83.40
2018-09-12T16:58:15.157Z,85.20
2018-09-12T17:00:43.425Z,87.40
2018-09-12T17:03:11.575Z,86.50
2018-09-12T17:05:40.042Z,86.50
2018-09-12T17:08:08.224Z,88.50
2018-09-12T17:10:36.705Z,89.90
2018-09-12T17:13:04.879Z,90.80
2018-09-12T17:15:33.191Z,91.30
2018-09-12T17:18:01.493Z,91.50
2018-09-12T17:20:29.647Z,91.70
2018-09-12T17:22:57.822Z,91.70
2018-09-12T17:25:26.005Z,92.20
2018-09-12T17:27:54.184Z,92.20
2018-09-12T17:30:22.378Z,92.80
2018-09-12T17:32:50.562Z,92.80
2018-09-12T17:35:18.738Z,92.70
2018-09-12T17:37:46.921Z,92.70
2018-09-12T17:40:15.122Z,92.70
2018-09-12T17:42:43.264Z,92.70
2018-09-12T17:45:11.741Z,92.70
2018-09-12T17:47:39.939Z,92.70
2018-09-12T17:50:08.241Z,92.20
2018-09-12T17:52:36.569Z,92.00
2018-09-12T17:55:04.940Z,92.10
2018-09-12T17:57:33.096Z,91.70
2018-09-12T18:00:01.303Z,91.70
2018-09-12T18:02:30.263Z,91.50
2018-09-12T18:04:58.467Z,91.40
2018-09-12T18:07:26.916Z,91.30
2018-09-12T18:09:55.331Z,90.90
2018-09-12T18:12:23.864Z,91.10
2018-09-12T18:14:52.006Z,91.00
2018-09-12T18:17:20.204Z,91.00
2018-09-12T18:19:48.864Z,91.20
2018-09-12T18:22:17.045Z,91.20
2018-09-12T18:24:46.195Z,91.40
2018-09-12T18:27:14.300Z,91.20
2018-09-12T18:29:42.456Z,91.50
2018-09-12T18:32:10.627Z,91.30
2018-09-12T18:34:38.772Z,91.20
2018-09-12T18:37:07.170Z,91.50
2018-09-12T18:39:35.378Z,91.60
2018-09-12T18:42:03.989Z,91.80
2018-09-12T18:44:32.377Z,91.60
2018-09-12T18:47:01.143Z,92.00
2018-09-12T18:49:29.720Z,92.00
2018-09-12T18:51:58.019Z,91.60
2018-09-12T18:54:26.176Z,91.90
2018-09-12T18:56:54.369Z,91.60
2018-09-12T18:59:22.568Z,91.90
2018-09-12T19:01:51.336Z,92.30
2018-09-12T19:04:21.163Z,92.30
2018-09-12T19:06:49.381Z,92.40
2018-09-12T19:09:17.738Z,92.50
2018-09-12T19:11:47.093Z,92.60
2018-09-12T19:14:15.274Z,92.60
2018-09-12T19:16:43.625Z,92.80
2018-09-12T19:19:11.843Z,93.00
2018-09-12T19:21:40.299Z,93.00
2018-09-12T19:24:08.676Z,93.10
2018-09-12T19:26:36.932Z,93.20
2018-09-12T19:29:05.099Z,93.40
2018-09-12T19:31:33.298Z,93.70
2018-09-12T19:34:01.578Z,93.60
2018-09-12T19:36:29.771Z,93.60
2018-09-12T19:38:57.944Z,93.40
2018-09-12T19:41:26.085Z,93.20
2018-09-12T19:43:54.293Z,93.50
2018-09-12T19:46:22.465Z,93.30
2018-09-12T19:48:50.631Z,93.60
2018-09-12T19:51:18.842Z,93.30
2018-09-12T19:53:47.029Z,93.30
2018-09-12T19:56:15.753Z,93.10
2018-09-12T19:58:44.629Z,93.20
2018-09-12T20:01:12.804Z,93.20
2018-09-12T20:03:40.939Z,93.20
2018-09-12T20:06:09.110Z,93.30
2018-09-12T20:08:37.293Z,93.10
2018-09-12T20:11:05.612Z,93.00
2018-09-12T20:13:33.763Z,93.20
2018-09-12T20:16:01.998Z,93.40
2018-09-12T20:18:30.119Z,93.40
2018-09-12T20:20:58.361Z,93.70
2018-09-12T20:23:26.546Z,93.60
2018-09-12T20:25:54.716Z,93.50
2018-09-12T20:28:22.945Z,93.50
2018-09-12T20:30:51.096Z,93.50
2018-09-12T20:33:19.397Z,93.60
2018-09-12T20:35:47.629Z,93.50
2018-09-12T20:38:15.825Z,93.80
2018-09-12T20:40:44.132Z,93.50
2018-09-12T20:43:12.284Z,93.70
2018-09-12T20:45:40.448Z,94.00
2018-09-12T20:48:08.844Z,94.00
2018-09-12T20:50:37.063Z,94.00
2018-09-12T20:53:05.182Z,93.90
2018-09-12T20:55:33.364Z,93.80
2018-09-12T20:58:01.533Z,93.90
2018-09-12T21:00:29.698Z,94.10
2018-09-12T21:02:57.876Z,94.20
2018-09-12T21:05:26.036Z,94.00
2018-09-12T21:07:54.225Z,93.90
2018-09-12T21:10:22.412Z,94.10
2018-09-12T21:12:50.609Z,93.90
2018-09-12T21:15:18.760Z,94.30
2018-09-12T21:17:46.929Z,94.40
2018-09-12T21:20:15.070Z,94.00
2018-09-12T21:22:43.228Z,94.20
2018-09-12T21:25:11.385Z,94.30
2018-09-12T21:27:39.520Z,94.40
2018-09-12T21:30:07.821Z,94.30
2018-09-12T21:32:35.983Z,94.20
2018-09-12T21:35:04.139Z,94.50
2018-09-12T21:37:32.328Z,94.20
2018-09-12T21:40:00.479Z,94.30
2018-09-12T21:42:28.649Z,94.40
2018-09-12T21:44:58.036Z,94.30
2018-09-12T21:47:26.173Z,94.70
2018-09-12T21:49:54.341Z,94.50
2018-09-12T21:52:22.724Z,94.70
2018-09-12T21:54:50.917Z,94.70
2018-09-12T21:57:19.056Z,94.70
2018-09-12T21:59:47.221Z,94.90
2018-09-12T22:02:15.406Z,95.10
2018-09-12T22:04:43.557Z,95.30
2018-09-12T22:07:11.707Z,95.50
2018-09-12T22:09:39.881Z,95.40
2018-09-12T22:12:08.164Z,95.40
2018-09-12T22:14:36.349Z,95.20
2018-09-12T22:17:04.536Z,95.40
2018-09-12T22:19:32.681Z,95.20
2018-09-12T22:22:00.844Z,95.30
2018-09-12T22:24:29.019Z,95.60
2018-09-12T22:26:57.199Z,95.50
2018-09-12T22:29:25.624Z,95.70
2018-09-12T22:31:53.770Z,95.70
2018-09-12T22:34:21.936Z,95.70
2018-09-12T22:36:51.034Z,95.70
2018-09-12T22:39:19.187Z,95.60
2018-09-12T22:41:47.400Z,95.70
2018-09-12T22:44:15.574Z,95.60
2018-09-12T22:46:43.729Z,95.70
2018-09-12T22:49:11.864Z,95.90
2018-09-12T22:51:40.025Z,95.70
2018-09-12T22:54:08.210Z,95.90
2018-09-12T22:56:36.378Z,96.20
2018-09-12T22:59:04.540Z,95.60
2018-09-12T23:01:32.685Z,95.70
2018-09-12T23:04:00.848Z,95.70
2018-09-12T23:06:29.037Z,95.70
2018-09-12T23:08:57.157Z,95.70
2018-09-12T23:11:25.338Z,95.70
2018-09-12T23:13:53.470Z,95.80
2018-09-12T23:16:21.692Z,95.80
2018-09-12T23:18:51.766Z,95.80
2018-09-12T23:21:20.353Z,95.80
2018-09-12T23:23:48.623Z,95.70
2018-09-12T23:26:17.061Z,95.70
2018-09-12T23:28:45.228Z,95.60
2018-09-12T23:31:13.505Z,95.70
2018-09-12T23:33:41.688Z,95.70
2018-09-12T23:36:09.848Z,95.60
2018-09-12T23:38:38.000Z,95.20
2018-09-12T23:41:06.426Z,94.90
2018-09-12T23:43:35.119Z,94.70
2018-09-12T23:46:03.264Z,94.90
2018-09-12T23:48:31.461Z,94.80
2018-09-12T23:50:59.609Z,95.00
2018-09-12T23:53:35.164Z,94.60
2018-09-12T23:56:03.533Z,94.70
2018-09-12T23:58:31.668Z,94.60
